Time;durP1;ratioP1;P1;durP2;ratioP2;P2;SDS_P1;SDS_P2;PMS_P1;PMS_P2;Temp;Humidity;BMP_temperature;BMP_pressure;BME280_temperature;BME280_humidity;BME280_pressure;Samples;Min_cycle;Max_cycle;Signal;HPM_P1;HPM_P2
2021/03/24 00:00:36;;;;;;;43.83;39.27;;;;;;;;;;5059249;28;20454;-66
2021/03/24 00:03:02;;;;;;;44.93;38.77;;;;;;;;;;5041577;28;20524;-65
2021/03/24 00:05:30;;;;;;;43.33;38.80;;;;;;;;;;5058216;28;20450;-66
2021/03/24 00:07:57;;;;;;;43.27;38.43;;;;;;;;;;5057310;28;20487;-66
2021/03/24 00:10:25;;;;;;;46.37;39.57;;;;;;;;;;5056965;28;20447;-67
2021/03/24 00:12:51;;;;;;;46.60;39.30;;;;;;;;;;5059795;28;20456;-66
2021/03/24 00:15:19;;;;;;;46.50;39.77;;;;;;;;;;5063815;28;20455;-65
2021/03/24 00:17:46;;;;;;;49.80;40.00;;;;;;;;;;5059085;28;20795;-66
2021/03/24 00:20:14;;;;;;;45.67;40.40;;;;;;;;;;5053883;28;20819;-66
2021/03/24 00:22:40;;;;;;;46.20;40.30;;;;;;;;;;5062033;28;20452;-65
2021/03/24 00:25:08;;;;;;;45.30;40.00;;;;;;;;;;5060935;28;20828;-66
2021/03/24 00:27:35;;;;;;;45.03;39.70;;;;;;;;;;5062976;28;20483;-66
2021/03/24 00:30:03;;;;;;;43.67;38.23;;;;;;;;;;5067850;28;20541;-65
2021/03/24 00:32:31;;;;;;;45.10;37.80;;;;;;;;;;5049189;28;20451;-66
2021/03/24 00:34:58;;;;;;;45.03;39.67;;;;;;;;;;5038517;28;20452;-66
2021/03/24 00:37:24;;;;;;;42.40;37.97;;;;;;;;;;5031403;28;20514;-66
2021/03/24 00:39:51;;;;;;;44.70;39.80;;;;;;;;;;5059700;28;20526;-65
2021/03/24 00:42:17;;;;;;;43.50;38.87;;;;;;;;;;5054249;28;20452;-65
2021/03/24 00:44:44;;;;;;;47.73;38.47;;;;;;;;;;5068041;28;20986;-66
2021/03/24 00:47:11;;;;;;;41.90;37.20;;;;;;;;;;5035482;28;20688;-65
2021/03/24 00:49:38;;;;;;;41.73;37.27;;;;;;;;;;5069401;28;20447;-66
2021/03/24 00:52:05;;;;;;;45.27;38.20;;;;;;;;;;5056312;28;20456;-66
2021/03/24 00:54:32;;;;;;;44.97;39.10;;;;;;;;;;5050375;28;20451;-66
2021/03/24 00:56:58;;;;;;;50.30;40.87;;;;;;;;;;5050754;28;20471;-66
2021/03/24 00:59:25;;;;;;;42.23;37.73;;;;;;;;;;5050819;28;20448;-66
2021/03/24 01:01:51;;;;;;;48.47;39.03;;;;;;;;;;5053989;28;20451;-66
2021/03/24 01:04:18;;;;;;;46.77;41.63;;;;;;;;;;5056821;28;20447;-66
2021/03/24 01:06:46;;;;;;;45.23;39.63;;;;;;;;;;5056568;28;20483;-66
2021/03/24 01:09:13;;;;;;;45.50;40.37;;;;;;;;;;5071972;28;20511;-66
2021/03/24 01:11:41;;;;;;;46.43;38.37;;;;;;;;;;5069290;28;20882;-66
2021/03/24 01:14:08;;;;;;;45.83;38.70;;;;;;;;;;5063982;28;20542;-66
2021/03/24 01:16:35;;;;;;;46.87;40.83;;;;;;;;;;5067824;28;20474;-66
2021/03/24 01:19:02;;;;;;;45.07;39.57;;;;;;;;;;5068027;28;20444;-65
2021/03/24 01:21:28;;;;;;;45.20;39.90;;;;;;;;;;5066555;28;20953;-66
2021/03/24 01:23:56;;;;;;;50.37;40.30;;;;;;;;;;5063355;28;20452;-66
2021/03/24 01:26:22;;;;;;;50.33;41.27;;;;;;;;;;5073038;28;20471;-66
2021/03/24 01:28:57;;;;;;;50.17;41.40;;;;;;;;;;5070414;28;20990;-66
2021/03/24 01:31:24;;;;;;;49.80;42.77;;;;;;;;;;5071274;28;20458;-65
2021/03/24 01:33:51;;;;;;;48.37;42.30;;;;;;;;;;5053426;28;20456;-66
2021/03/24 01:36:17;;;;;;;47.03;41.00;;;;;;;;;;5054042;28;20542;-66
2021/03/24 01:38:44;;;;;;;45.47;40.27;;;;;;;;;;5061069;28;20535;-65
2021/03/24 01:41:12;;;;;;;50.20;42.57;;;;;;;;;;5074415;28;20815;-66
2021/03/24 01:43:39;;;;;;;46.40;41.40;;;;;;;;;;5066957;28;20456;-67
2021/03/24 01:46:20;;;;;;;49.23;42.80;;;;;;;;;;5054089;28;20548;-67
2021/03/24 01:48:48;;;;;;;50.00;43.10;;;;;;;;;;5059930;28;20809;-66
2021/03/24 01:51:15;;;;;;;48.47;43.03;;;;;;;;;;5055132;28;20948;-65
2021/03/24 01:53:42;;;;;;;52.77;43.00;;;;;;;;;;5053406;28;20958;-67
2021/03/24 01:56:10;;;;;;;53.73;43.53;;;;;;;;;;5064795;28;20446;-66
2021/03/24 01:58:37;;;;;;;46.43;41.43;;;;;;;;;;5068712;28;20455;-67
2021/03/24 02:01:05;;;;;;;47.77;40.97;;;;;;;;;;5063909;28;20550;-67
2021/03/24 02:03:32;;;;;;;50.23;44.40;;;;;;;;;;5057002;28;20950;-66
2021/03/24 02:06:00;;;;;;;50.60;43.40;;;;;;;;;;5053757;28;20515;-67
2021/03/24 02:08:29;;;;;;;50.00;42.63;;;;;;;;;;5057502;28;20479;-65
2021/03/24 02:11:02;;;;;;;53.50;44.37;;;;;;;;;;5073959;28;20779;-65
2021/03/24 02:13:31;;;;;;;55.60;44.80;;;;;;;;;;5068223;28;20993;-65
2021/03/24 02:16:00;;;;;;;55.40;44.10;;;;;;;;;;5055528;28;21044;-66
2021/03/24 02:18:27;;;;;;;49.80;43.97;;;;;;;;;;5053325;28;20939;-65
2021/03/24 02:20:58;;;;;;;50.63;43.17;;;;;;;;;;5055230;28;20988;-65
2021/03/24 02:23:28;;;;;;;53.40;45.90;;;;;;;;;;5043941;28;20448;-65
2021/03/24 02:25:59;;;;;;;51.63;44.00;;;;;;;;;;5054496;28;20920;-65
2021/03/24 02:28:27;;;;;;;52.53;44.20;;;;;;;;;;5073346;28;20483;-65
2021/03/24 02:30:53;;;;;;;52.03;42.80;;;;;;;;;;5064240;28;20456;-64
2021/03/24 02:33:22;;;;;;;53.93;43.40;;;;;;;;;;5053355;28;20446;-65
2021/03/24 02:35:49;;;;;;;53.30;44.30;;;;;;;;;;5053247;28;20451;-64
2021/03/24 02:38:17;;;;;;;54.20;44.90;;;;;;;;;;5056259;28;20470;-64
2021/03/24 02:40:45;;;;;;;58.67;46.73;;;;;;;;;;5072836;28;20451;-64
2021/03/24 02:43:12;;;;;;;53.50;44.90;;;;;;;;;;5056463;28;20543;-65
2021/03/24 02:45:41;;;;;;;53.40;45.00;;;;;;;;;;5052925;28;20530;-65
2021/03/24 02:48:09;;;;;;;54.90;46.20;;;;;;;;;;5052758;28;21022;-65
2021/03/24 02:50:37;;;;;;;55.17;47.57;;;;;;;;;;5052813;28;20939;-65
2021/03/24 02:53:04;;;;;;;52.90;44.67;;;;;;;;;;5052935;28;20454;-64
2021/03/24 02:55:32;;;;;;;59.50;47.77;;;;;;;;;;5054566;28;20527;-64
2021/03/24 02:57:58;;;;;;;60.97;48.87;;;;;;;;;;5066052;28;20542;-64
2021/03/24 03:00:26;;;;;;;54.27;44.73;;;;;;;;;;5059108;28;20451;-65
2021/03/24 03:02:55;;;;;;;51.40;44.27;;;;;;;;;;5052166;28;20450;-65
2021/03/24 03:05:24;;;;;;;57.37;45.30;;;;;;;;;;5052827;28;20454;-65
2021/03/24 03:07:53;;;;;;;57.57;44.70;;;;;;;;;;5052372;28;20543;-64
2021/03/24 03:10:22;;;;;;;52.40;45.27;;;;;;;;;;5068143;28;20981;-65
2021/03/24 03:12:52;;;;;;;51.33;43.87;;;;;;;;;;5062478;28;20456;-64
2021/03/24 03:15:22;;;;;;;54.57;44.90;;;;;;;;;;5052120;28;20823;-65
2021/03/24 03:17:52;;;;;;;55.13;45.73;;;;;;;;;;5057830;28;20514;-65
2021/03/24 03:20:21;;;;;;;54.10;43.00;;;;;;;;;;5052695;28;20820;-66
2021/03/24 03:22:50;;;;;;;60.83;47.30;;;;;;;;;;5051562;28;20543;-64
2021/03/24 03:25:20;;;;;;;53.40;44.87;;;;;;;;;;5065920;28;20454;-65
2021/03/24 03:27:49;;;;;;;56.63;48.73;;;;;;;;;;5053058;28;20821;-65
2021/03/24 03:30:17;;;;;;;56.63;47.80;;;;;;;;;;5052038;28;20538;-65
2021/03/24 03:32:44;;;;;;;61.13;48.87;;;;;;;;;;5059882;28;20460;-65
2021/03/24 03:35:13;;;;;;;56.13;45.30;;;;;;;;;;5052148;28;20943;-65
2021/03/24 03:37:41;;;;;;;57.83;48.43;;;;;;;;;;5052147;28;20468;-65
2021/03/24 03:40:10;;;;;;;55.87;47.20;;;;;;;;;;5042251;28;20538;-65
2021/03/24 03:42:37;;;;;;;51.77;44.57;;;;;;;;;;5072804;28;20447;-64
2021/03/24 03:45:04;;;;;;;55.50;44.70;;;;;;;;;;5071058;28;20447;-65
2021/03/24 03:47:31;;;;;;;55.40;44.57;;;;;;;;;;5052969;28;20494;-65
2021/03/24 03:49:58;;;;;;;53.03;45.10;;;;;;;;;;5054750;28;20448;-65
2021/03/24 03:52:39;;;;;;;49.40;42.60;;;;;;;;;;5055341;28;20546;-65
2021/03/24 03:55:14;;;;;;;48.87;42.13;;;;;;;;;;5060336;28;20864;-64
2021/03/24 03:57:42;;;;;;;55.60;44.43;;;;;;;;;;5061991;28;20464;-65
2021/03/24 04:00:11;;;;;;;55.40;43.73;;;;;;;;;;5051531;28;20458;-65
2021/03/24 04:02:40;;;;;;;51.50;43.87;;;;;;;;;;5058791;28;20538;-65
2021/03/24 04:05:08;;;;;;;57.20;46.73;;;;;;;;;;5053275;28;20904;-66
2021/03/24 04:07:37;;;;;;;51.07;43.50;;;;;;;;;;5047920;28;20590;-65
2021/03/24 04:10:05;;;;;;;57.10;45.80;;;;;;;;;;5056469;28;20536;-65
2021/03/24 04:12:34;;;;;;;57.23;45.60;;;;;;;;;;5045827;28;21175;-67
2021/03/24 04:15:02;;;;;;;53.40;43.87;;;;;;;;;;5057809;28;20515;-67
2021/03/24 04:17:31;;;;;;;53.10;44.77;;;;;;;;;;5046180;28;20460;-67
2021/03/24 04:19:58;;;;;;;50.37;44.63;;;;;;;;;;5054959;28;20452;-67
2021/03/24 04:22:27;;;;;;;54.03;46.83;;;;;;;;;;5067503;28;20451;-67
2021/03/24 04:24:55;;;;;;;59.47;44.60;;;;;;;;;;5078976;28;20491;-66
2021/03/24 04:27:23;;;;;;;55.77;44.30;;;;;;;;;;5070101;28;20529;-67
2021/03/24 04:29:52;;;;;;;57.97;46.33;;;;;;;;;;5071505;28;20446;-66
2021/03/24 04:32:19;;;;;;;56.17;45.93;;;;;;;;;;5060629;28;20451;-67
2021/03/24 04:34:46;;;;;;;60.00;46.27;;;;;;;;;;5060251;28;20796;-67
2021/03/24 04:37:20;;;;;;;54.70;44.70;;;;;;;;;;5053268;28;20468;-67
2021/03/24 04:39:48;;;;;;;54.73;46.13;;;;;;;;;;5055539;28;20444;-66
2021/03/24 04:42:17;;;;;;;53.53;46.40;;;;;;;;;;5067798;28;21049;-67
2021/03/24 04:44:45;;;;;;;60.90;49.93;;;;;;;;;;5075129;28;21000;-67
2021/03/24 04:47:14;;;;;;;59.83;49.53;;;;;;;;;;5054447;28;20489;-67
2021/03/24 04:49:44;;;;;;;58.67;45.87;;;;;;;;;;5054871;28;20451;-67
2021/03/24 04:52:11;;;;;;;58.80;47.60;;;;;;;;;;5060572;28;20451;-66
2021/03/24 04:54:39;;;;;;;59.90;48.77;;;;;;;;;;5046297;28;20456;-66
2021/03/24 04:57:07;;;;;;;57.33;47.13;;;;;;;;;;5059666;28;20463;-67
2021/03/24 04:59:35;;;;;;;58.00;48.37;;;;;;;;;;5054514;28;20444;-66
2021/03/24 05:02:05;;;;;;;56.20;47.03;;;;;;;;;;5072122;28;20454;-66
2021/03/24 05:04:34;;;;;;;57.47;47.13;;;;;;;;;;5069673;28;20465;-66
2021/03/24 05:07:04;;;;;;;59.87;53.47;;;;;;;;;;5054247;28;20479;-64
2021/03/24 05:09:30;;;;;;;62.13;55.47;;;;;;;;;;5053619;28;20451;-67
2021/03/24 05:12:07;;;;;;;64.93;54.77;;;;;;;;;;5054581;28;20478;-65
2021/03/24 05:14:34;;;;;;;61.77;55.23;;;;;;;;;;5053322;28;20822;-65
2021/03/24 05:17:05;;;;;;;63.17;56.23;;;;;;;;;;5054063;28;20551;-65
2021/03/24 05:19:33;;;;;;;62.93;56.13;;;;;;;;;;5054221;28;21037;-66
2021/03/24 05:22:08;;;;;;;63.07;55.80;;;;;;;;;;5054234;28;20443;-66
2021/03/24 05:24:35;;;;;;;62.83;56.17;;;;;;;;;;5038601;28;20465;-66
2021/03/24 05:27:03;;;;;;;64.47;57.40;;;;;;;;;;5069405;28;20473;-65
2021/03/24 05:29:33;;;;;;;69.77;59.40;;;;;;;;;;5071986;28;20492;-65
2021/03/24 05:32:01;;;;;;;65.33;58.07;;;;;;;;;;5063736;28;20455;-66
2021/03/24 05:34:29;;;;;;;67.63;60.03;;;;;;;;;;5052590;28;20545;-66
2021/03/24 05:36:57;;;;;;;67.00;57.20;;;;;;;;;;5054213;28;21025;-65
2021/03/24 05:39:26;;;;;;;70.43;58.70;;;;;;;;;;5053367;28;20451;-65
2021/03/24 05:41:58;;;;;;;64.23;57.40;;;;;;;;;;5073110;28;20462;-66
2021/03/24 05:44:37;;;;;;;69.90;58.50;;;;;;;;;;5068435;28;20943;-65
2021/03/24 05:47:16;;;;;;;63.70;56.90;;;;;;;;;;5053878;28;20471;-66
2021/03/24 05:49:45;;;;;;;71.83;56.63;;;;;;;;;;5059603;28;20965;-65
2021/03/24 05:52:19;;;;;;;65.63;57.23;;;;;;;;;;5053867;28;21022;-65
2021/03/24 05:55:04;;;;;;;64.30;55.77;;;;;;;;;;5058456;28;20451;-66
2021/03/24 05:57:38;;;;;;;64.00;56.60;;;;;;;;;;5040490;28;21026;-65
2021/03/24 06:00:11;;;;;;;68.47;57.40;;;;;;;;;;5058076;28;20451;-66
2021/03/24 06:02:41;;;;;;;67.37;56.10;;;;;;;;;;5064340;28;20496;-66
2021/03/24 06:05:11;;;;;;;69.90;60.30;;;;;;;;;;5063140;28;20814;-66
2021/03/24 06:07:57;;;;;;;67.93;57.73;;;;;;;;;;5073300;28;20498;-67
2021/03/24 06:10:38;;;;;;;65.17;55.60;;;;;;;;;;5063080;28;20470;-66
2021/03/24 06:13:19;;;;;;;64.17;45.90;;;;;;;;;;5068452;28;20463;-64
2021/03/24 06:15:55;;;;;;;43.70;34.97;;;;;;;;;;5012292;28;20439;-66
2021/03/24 06:18:30;;;;;;;52.50;38.10;;;;;;;;;;5054401;28;20528;-66
2021/03/24 06:21:00;;;;;;;56.33;44.90;;;;;;;;;;5064401;28;20971;-65
2021/03/24 06:23:38;;;;;;;16.73;11.23;;;;;;;;;;5073240;28;20506;-69
2021/03/24 06:26:15;;;;;;;20.40;10.93;;;;;;;;;;5069860;28;20457;-68
2021/03/24 06:28:45;;;;;;;23.47;14.40;;;;;;;;;;5064210;28;20486;-70
2021/03/24 06:31:30;;;;;;;20.60;16.43;;;;;;;;;;5053131;28;20547;-68
2021/03/24 06:34:09;;;;;;;16.20;13.83;;;;;;;;;;5054474;28;21039;-68
2021/03/24 06:36:42;;;;;;;23.93;21.40;;;;;;;;;;5061299;28;20807;-67
2021/03/24 06:39:27;;;;;;;25.30;18.57;;;;;;;;;;5073227;28;20442;-70
2021/03/24 06:41:57;;;;;;;23.43;19.87;;;;;;;;;;5054178;28;20447;-69
2021/03/24 06:44:33;;;;;;;25.13;22.60;;;;;;;;;;5051631;28;20517;-69
2021/03/24 06:47:03;;;;;;;29.63;26.57;;;;;;;;;;5053601;28;20990;-68
2021/03/24 06:49:33;;;;;;;24.13;21.67;;;;;;;;;;5072734;28;20455;-67
2021/03/24 06:52:19;;;;;;;22.40;20.10;;;;;;;;;;5063473;28;20439;-67
2021/03/24 06:55:00;;;;;;;21.70;18.80;;;;;;;;;;5072371;28;20443;-67
2021/03/24 06:57:43;;;;;;;29.40;26.30;;;;;;;;;;5051020;28;20464;-70
2021/03/24 07:00:15;;;;;;;22.40;20.17;;;;;;;;;;5051804;28;20531;-67
2021/03/24 07:02:55;;;;;;;21.10;19.00;;;;;;;;;;5052791;28;20428;-68
2021/03/24 07:05:45;;;;;;;24.70;22.03;;;;;;;;;;5059425;28;20534;-68
2021/03/24 07:08:18;;;;;;;18.37;16.57;;;;;;;;;;5032660;28;20487;-67
2021/03/24 07:10:54;;;;;;;22.47;19.10;;;;;;;;;;5058000;28;20467;-67
2021/03/24 07:13:39;;;;;;;27.13;18.93;;;;;;;;;;5050871;28;20965;-68
2021/03/24 07:16:12;;;;;;;21.60;19.40;;;;;;;;;;5064044;28;20852;-68
2021/03/24 07:18:53;;;;;;;21.67;19.43;;;;;;;;;;5057364;28;20817;-68
2021/03/24 07:21:26;;;;;;;24.07;21.67;;;;;;;;;;5057780;28;20463;-69
2021/03/24 07:24:03;;;;;;;26.40;21.47;;;;;;;;;;5060867;28;20943;-69
2021/03/24 07:26:37;;;;;;;52.27;47.23;;;;;;;;;;5047757;28;20515;-70
2021/03/24 07:29:08;;;;;;;52.03;46.43;;;;;;;;;;5043330;28;20986;-69
2021/03/24 07:31:46;;;;;;;53.73;47.93;;;;;;;;;;5051711;28;20455;-67
2021/03/24 07:34:19;;;;;;;55.10;48.90;;;;;;;;;;5061503;28;20446;-69
2021/03/24 07:37:00;;;;;;;54.93;48.30;;;;;;;;;;5061359;28;20475;-67
2021/03/24 07:39:42;;;;;;;58.50;49.70;;;;;;;;;;5071718;28;20427;-68
2021/03/24 07:42:32;;;;;;;53.90;43.13;;;;;;;;;;5066030;28;20439;-66
2021/03/24 07:45:05;;;;;;;50.43;38.40;;;;;;;;;;5017024;28;20465;-66
2021/03/24 07:47:47;;;;;;;26.60;20.47;;;;;;;;;;5053403;28;20488;-68
2021/03/24 07:50:28;;;;;;;29.63;23.83;;;;;;;;;;5071964;28;20427;-68
2021/03/24 07:53:00;;;;;;;14.87;13.23;;;;;;;;;;5056712;28;20451;-68
2021/03/24 07:55:30;;;;;;;21.77;15.23;;;;;;;;;;5052141;28;20486;-68
2021/03/24 07:58:02;;;;;;;21.70;18.83;;;;;;;;;;5051746;28;20467;-68
2021/03/24 08:00:34;;;;;;;26.60;19.70;;;;;;;;;;5055796;28;20534;-66
2021/03/24 08:03:05;;;;;;;25.97;21.13;;;;;;;;;;5049422;28;20455;-68
2021/03/24 08:05:55;;;;;;;37.63;32.53;;;;;;;;;;5051280;28;20444;-67
2021/03/24 08:08:26;;;;;;;41.73;37.33;;;;;;;;;;5051128;28;20574;-67
2021/03/24 08:10:59;;;;;;;49.47;44.23;;;;;;;;;;5044727;28;20452;-67
2021/03/24 08:13:36;;;;;;;39.43;32.53;;;;;;;;;;5054854;28;20526;-66
2021/03/24 08:16:12;;;;;;;40.13;30.60;;;;;;;;;;5055010;28;20945;-67
2021/03/24 08:18:54;;;;;;;44.07;37.33;;;;;;;;;;5055346;28;20960;-67
2021/03/24 08:21:24;;;;;;;40.67;29.20;;;;;;;;;;5055627;28;20531;-68
2021/03/24 08:23:58;;;;;;;41.77;31.53;;;;;;;;;;5054943;28;20977;-68
2021/03/24 08:26:27;;;;;;;40.63;31.43;;;;;;;;;;5053157;28;20467;-67
2021/03/24 08:28:58;;;;;;;47.47;42.47;;;;;;;;;;5055147;28;20483;-67
2021/03/24 08:31:42;;;;;;;48.70;42.50;;;;;;;;;;5036066;28;20494;-69
2021/03/24 08:34:21;;;;;;;49.43;42.87;;;;;;;;;;5052075;28;20463;-67
2021/03/24 08:36:55;;;;;;;49.23;35.47;;;;;;;;;;5053958;28;20994;-66
2021/03/24 08:39:33;;;;;;;48.10;34.20;;;;;;;;;;5051239;28;20451;-67
2021/03/24 08:42:17;;;;;;;41.17;35.33;;;;;;;;;;5046769;28;20822;-68
2021/03/24 08:44:47;;;;;;;49.97;44.57;;;;;;;;;;5053520;28;20807;-67
2021/03/24 08:47:15;;;;;;;57.53;51.40;;;;;;;;;;5053866;28;20464;-67
2021/03/24 08:49:47;;;;;;;56.23;50.30;;;;;;;;;;5054417;28;20978;-67
2021/03/24 08:52:19;;;;;;;59.00;52.70;;;;;;;;;;5054879;28;20447;-67
2021/03/24 08:54:55;;;;;;;58.07;51.97;;;;;;;;;;5055100;28;20801;-67
2021/03/24 08:57:32;;;;;;;55.50;49.63;;;;;;;;;;5053365;28;20974;-67
2021/03/24 09:00:03;;;;;;;56.13;50.23;;;;;;;;;;5054339;28;20450;-65
2021/03/24 09:02:41;;;;;;;55.30;49.50;;;;;;;;;;5054256;28;20483;-67
2021/03/24 09:05:18;;;;;;;54.53;48.90;;;;;;;;;;5054589;28;20443;-67
2021/03/24 09:07:51;;;;;;;26.97;23.10;;;;;;;;;;5034539;28;20579;-68
2021/03/24 09:10:25;;;;;;;33.40;30.00;;;;;;;;;;5035357;28;20574;-68
2021/03/24 09:12:56;;;;;;;35.40;30.47;;;;;;;;;;5053412;28;20940;-68
2021/03/24 09:15:26;;;;;;;50.60;45.80;;;;;;;;;;5054569;28;20438;-66
2021/03/24 09:18:05;;;;;;;53.40;47.90;;;;;;;;;;5052990;28;20453;-67
2021/03/24 09:20:44;;;;;;;49.53;44.60;;;;;;;;;;5056867;28;20496;-67
2021/03/24 09:23:28;;;;;;;50.03;45.20;;;;;;;;;;5054334;28;20555;-65
2021/03/24 09:25:58;;;;;;;48.03;43.40;;;;;;;;;;5054090;28;20538;-68
2021/03/24 09:28:40;;;;;;;48.17;43.60;;;;;;;;;;5054500;28;20510;-66
2021/03/24 09:31:16;;;;;;;50.20;45.10;;;;;;;;;;5053995;28;20462;-67
2021/03/24 09:33:51;;;;;;;48.40;43.50;;;;;;;;;;5046799;28;20497;-67
2021/03/24 09:36:41;;;;;;;47.27;42.23;;;;;;;;;;5053785;28;20545;-66
2021/03/24 09:39:16;;;;;;;48.77;44.10;;;;;;;;;;5038875;28;20539;-66
2021/03/24 09:41:44;;;;;;;49.80;44.70;;;;;;;;;;5054375;28;20677;-67
2021/03/24 09:44:15;;;;;;;47.93;43.17;;;;;;;;;;5052848;28;20531;-67
2021/03/24 09:46:43;;;;;;;50.03;45.10;;;;;;;;;;5034028;28;20460;-65
2021/03/24 09:49:15;;;;;;;50.00;45.10;;;;;;;;;;5050706;28;20495;-66
2021/03/24 09:51:44;;;;;;;49.00;44.17;;;;;;;;;;5053385;28;20867;-67
2021/03/24 09:54:18;;;;;;;50.60;45.47;;;;;;;;;;5053795;28;20586;-67
2021/03/24 09:56:46;;;;;;;48.70;43.90;;;;;;;;;;5053031;28;20471;-66
2021/03/24 09:59:20;;;;;;;49.27;44.27;;;;;;;;;;5052934;28;20791;-66
2021/03/24 10:01:50;;;;;;;11.20;10.10;;;;;;;;;;5053937;28;20444;-67
2021/03/24 10:04:23;;;;;;;28.03;23.63;;;;;;;;;;5051624;28;20444;-69
2021/03/24 10:06:58;;;;;;;23.93;19.47;;;;;;;;;;5053425;28;20487;-68
2021/03/24 10:09:34;;;;;;;12.83;11.53;;;;;;;;;;5053751;28;20829;-69
2021/03/24 10:12:06;;;;;;;10.30;9.00;;;;;;;;;;5071797;22;20811;-63
2021/03/24 10:14:35;;;;;;;11.83;10.70;;;;;;;;;;5025555;28;20465;-63
2021/03/24 10:17:03;;;;;;;25.63;23.07;;;;;;;;;;5024033;28;20465;-64
2021/03/24 10:19:33;;;;;;;26.07;23.30;;;;;;;;;;5037706;28;20476;-64
2021/03/24 10:22:03;;;;;;;14.50;12.10;;;;;;;;;;5029214;28;20602;-64
2021/03/24 10:24:33;;;;;;;8.80;7.90;;;;;;;;;;5031497;28;20460;-64
2021/03/24 10:27:04;;;;;;;21.47;19.23;;;;;;;;;;5016083;28;20454;-64
2021/03/24 10:29:37;;;;;;;13.03;11.33;;;;;;;;;;5013299;28;20506;-64
2021/03/24 10:32:06;;;;;;;11.20;9.37;;;;;;;;;;5013407;28;20568;-64
2021/03/24 10:34:34;;;;;;;15.87;14.23;;;;;;;;;;5012443;28;20453;-62
2021/03/24 10:37:03;;;;;;;20.83;18.63;;;;;;;;;;5013244;28;20462;-62
2021/03/24 10:39:33;;;;;;;47.97;43.67;;;;;;;;;;5012738;28;20453;-65
2021/03/24 10:42:02;;;;;;;50.47;45.57;;;;;;;;;;5010092;28;20517;-66
2021/03/24 10:44:38;;;;;;;49.20;44.53;;;;;;;;;;5012708;28;20580;-65
2021/03/24 10:47:09;;;;;;;46.97;42.27;;;;;;;;;;5012534;28;20840;-66
2021/03/24 10:49:40;;;;;;;48.17;43.57;;;;;;;;;;5012836;28;20585;-66
2021/03/24 10:52:08;;;;;;;50.20;45.17;;;;;;;;;;5012762;28;20564;-66
2021/03/24 10:54:36;;;;;;;52.00;46.90;;;;;;;;;;5012541;28;20458;-68
2021/03/24 10:57:17;;;;;;;50.90;45.70;;;;;;;;;;5012601;28;20916;-66
2021/03/24 10:59:46;;;;;;;50.17;45.03;;;;;;;;;;5012601;28;20457;-63
2021/03/24 11:02:21;;;;;;;52.83;47.50;;;;;;;;;;5012666;28;20976;-63
2021/03/24 11:04:51;;;;;;;55.20;49.40;;;;;;;;;;5012737;28;20463;-63
2021/03/24 11:07:21;;;;;;;58.20;52.23;;;;;;;;;;5012813;28;20449;-64
2021/03/24 11:09:51;;;;;;;55.27;49.60;;;;;;;;;;5012307;28;20481;-64
2021/03/24 11:12:20;;;;;;;55.73;50.10;;;;;;;;;;5012418;28;21108;-64
2021/03/24 11:14:59;;;;;;;54.07;48.67;;;;;;;;;;5006738;28;20470;-64
2021/03/24 11:17:28;;;;;;;52.13;46.87;;;;;;;;;;5011618;28;20552;-64
2021/03/24 11:20:00;;;;;;;48.80;43.90;;;;;;;;;;5010789;28;20450;-64
2021/03/24 11:22:31;;;;;;;41.30;37.20;;;;;;;;;;5012203;28;20470;-65
2021/03/24 11:25:02;;;;;;;37.90;33.93;;;;;;;;;;5012141;28;20841;-62
2021/03/24 11:27:30;;;;;;;18.27;16.47;;;;;;;;;;5011843;28;20430;-63
2021/03/24 11:30:04;;;;;;;20.50;18.40;;;;;;;;;;5011508;28;20895;-63
2021/03/24 11:32:38;;;;;;;10.60;9.60;;;;;;;;;;5009932;28;20489;-62
2021/03/24 11:35:10;;;;;;;12.20;11.03;;;;;;;;;;5025034;28;20539;-62
2021/03/24 11:37:42;;;;;;;31.00;27.80;;;;;;;;;;5011620;28;20445;-63
2021/03/24 11:40:21;;;;;;;23.83;21.37;;;;;;;;;;5011686;28;20476;-63
2021/03/24 11:42:53;;;;;;;18.53;16.70;;;;;;;;;;5012054;28;20547;-61
2021/03/24 11:45:21;;;;;;;14.73;13.37;;;;;;;;;;5016526;28;20607;-62
2021/03/24 11:48:00;;;;;;;26.40;23.90;;;;;;;;;;5011905;28;20481;-63
2021/03/24 11:50:28;;;;;;;10.27;8.13;;;;;;;;;;5011257;28;20449;-63
2021/03/24 11:53:01;;;;;;;24.63;22.23;;;;;;;;;;5012226;28;20474;-62
2021/03/24 11:55:42;;;;;;;9.87;9.00;;;;;;;;;;5021349;28;20531;-62
2021/03/24 11:58:17;;;;;;;7.13;6.43;;;;;;;;;;5012558;28;20470;-66
2021/03/24 12:00:53;;;;;;;15.03;13.50;;;;;;;;;;5011584;28;20532;-63
2021/03/24 12:03:41;;;;;;;39.77;36.17;;;;;;;;;;5011116;28;20857;-61
2021/03/24 12:06:15;;;;;;;37.23;33.67;;;;;;;;;;5011515;28;20449;-62
2021/03/24 12:08:46;;;;;;;39.50;35.60;;;;;;;;;;5012196;28;20471;-62
2021/03/24 12:11:20;;;;;;;37.67;34.30;;;;;;;;;;5011098;28;20454;-62
2021/03/24 12:13:47;;;;;;;13.53;12.17;;;;;;;;;;5011514;28;20921;-62
2021/03/24 12:16:15;;;;;;;10.03;9.13;;;;;;;;;;5011031;28;20564;-62
2021/03/24 12:18:43;;;;;;;10.07;9.13;;;;;;;;;;5012000;28;20664;-63
2021/03/24 12:21:17;;;;;;;10.23;9.23;;;;;;;;;;5011761;28;20453;-62
2021/03/24 12:23:45;;;;;;;37.60;34.10;;;;;;;;;;5011680;28;20476;-62
2021/03/24 12:26:22;;;;;;;39.00;35.43;;;;;;;;;;5011783;28;20450;-63
2021/03/24 12:28:49;;;;;;;39.70;36.10;;;;;;;;;;5011593;28;21005;-62
2021/03/24 12:31:18;;;;;;;35.97;32.80;;;;;;;;;;5003988;28;20658;-62
2021/03/24 12:33:49;;;;;;;40.00;36.30;;;;;;;;;;5010935;28;20469;-62
2021/03/24 12:36:19;;;;;;;40.53;36.83;;;;;;;;;;5010890;28;20868;-62
2021/03/24 12:38:51;;;;;;;37.90;34.50;;;;;;;;;;5007253;28;20490;-63
2021/03/24 12:41:27;;;;;;;38.10;34.57;;;;;;;;;;4992263;28;20974;-62
2021/03/24 12:43:53;;;;;;;39.03;35.50;;;;;;;;;;5007097;28;20591;-62
2021/03/24 12:46:21;;;;;;;39.60;36.00;;;;;;;;;;5007244;28;20464;-63
2021/03/24 12:48:48;;;;;;;40.17;36.37;;;;;;;;;;5010926;28;20485;-62
2021/03/24 12:51:17;;;;;;;37.53;34.00;;;;;;;;;;5010828;28;20453;-62
2021/03/24 12:53:49;;;;;;;40.17;36.33;;;;;;;;;;5011639;28;20478;-63
2021/03/24 12:56:34;;;;;;;40.17;36.23;;;;;;;;;;5011065;28;20438;-62
2021/03/24 12:59:02;;;;;;;41.00;37.17;;;;;;;;;;5013827;28;20438;-63
2021/03/24 13:01:37;;;;;;;41.20;37.47;;;;;;;;;;5014985;28;20459;-62
2021/03/24 13:04:31;;;;;;;41.73;37.97;;;;;;;;;;5014849;28;20447;-62
2021/03/24 13:07:04;;;;;;;40.67;36.83;;;;;;;;;;5013080;28;20449;-61
2021/03/24 13:09:35;;;;;;;43.60;39.40;;;;;;;;;;4995336;28;20532;-62
2021/03/24 13:12:06;;;;;;;44.07;40.10;;;;;;;;;;4995154;28;20989;-62
2021/03/24 13:14:53;;;;;;;44.03;39.93;;;;;;;;;;4995717;28;20619;-61
2021/03/24 13:17:24;;;;;;;42.17;38.00;;;;;;;;;;5007429;28;20544;-62
2021/03/24 13:19:54;;;;;;;45.50;41.17;;;;;;;;;;5019006;28;20437;-63
2021/03/24 13:22:24;;;;;;;44.53;40.43;;;;;;;;;;5019023;28;20496;-63
2021/03/24 13:25:04;;;;;;;43.30;39.23;;;;;;;;;;5019466;28;20516;-63
2021/03/24 13:27:38;;;;;;;44.60;40.50;;;;;;;;;;5019160;28;21012;-61
2021/03/24 13:30:08;;;;;;;43.27;39.20;;;;;;;;;;5014460;28;20527;-62
2021/03/24 13:32:38;;;;;;;47.13;42.77;;;;;;;;;;5014016;28;20489;-63
2021/03/24 13:35:08;;;;;;;43.47;39.43;;;;;;;;;;5015005;28;20441;-62
2021/03/24 13:37:35;;;;;;;46.17;41.90;;;;;;;;;;5014425;28;20872;-62
2021/03/24 13:40:06;;;;;;;45.70;41.50;;;;;;;;;;5014491;28;20438;-63
2021/03/24 13:42:37;;;;;;;44.93;40.73;;;;;;;;;;5014390;28;21050;-62
2021/03/24 13:45:05;;;;;;;45.10;40.90;;;;;;;;;;5014120;28;20532;-63
2021/03/24 13:47:34;;;;;;;45.90;41.50;;;;;;;;;;5012869;28;20457;-62
2021/03/24 13:50:03;;;;;;;42.93;38.73;;;;;;;;;;5013597;28;20996;-62
2021/03/24 13:52:45;;;;;;;46.03;41.50;;;;;;;;;;5013791;28;20473;-63
2021/03/24 13:55:18;;;;;;;48.20;43.60;;;;;;;;;;5014143;28;20529;-63
2021/03/24 13:57:51;;;;;;;45.23;41.20;;;;;;;;;;5014001;28;20536;-62
2021/03/24 14:00:22;;;;;;;45.83;41.50;;;;;;;;;;5013928;28;20936;-62
2021/03/24 14:02:57;;;;;;;47.13;42.50;;;;;;;;;;5014087;28;20473;-62
2021/03/24 14:05:29;;;;;;;46.43;41.83;;;;;;;;;;5013626;28;21003;-62
2021/03/24 14:08:11;;;;;;;44.27;40.30;;;;;;;;;;5013226;28;21016;-62
2021/03/24 14:10:39;;;;;;;40.23;36.00;;;;;;;;;;5012426;28;20822;-62
2021/03/24 14:13:12;;;;;;;23.13;20.73;;;;;;;;;;5012788;28;20576;-62
2021/03/24 14:15:49;;;;;;;30.23;25.90;;;;;;;;;;5013614;28;20454;-63
2021/03/24 14:18:19;;;;;;;45.37;41.17;;;;;;;;;;5013697;28;20499;-61
2021/03/24 14:20:51;;;;;;;45.93;41.73;;;;;;;;;;5009481;28;21301;-62
2021/03/24 14:23:23;;;;;;;44.07;39.43;;;;;;;;;;5013707;28;20544;-62
2021/03/24 14:25:57;;;;;;;46.60;42.00;;;;;;;;;;5013290;28;20438;-61
2021/03/24 14:28:32;;;;;;;47.30;42.60;;;;;;;;;;5012782;28;20868;-62
2021/03/24 14:31:03;;;;;;;45.33;40.93;;;;;;;;;;5014888;28;20568;-64
2021/03/24 14:33:34;;;;;;;47.30;43.10;;;;;;;;;;5013321;28;20478;-62
2021/03/24 14:36:03;;;;;;;46.50;42.00;;;;;;;;;;5013316;28;20445;-63
2021/03/24 14:38:45;;;;;;;45.50;41.10;;;;;;;;;;5013105;28;20449;-61
2021/03/24 14:41:17;;;;;;;43.37;39.37;;;;;;;;;;5013086;28;20536;-61
2021/03/24 14:43:54;;;;;;;46.17;41.80;;;;;;;;;;5012410;28;20470;-61